sensor_id;sensor_type;location;lat;lon;timestamp;P1;durP1;ratioP1;P2;durP2;ratioP2
9819;SDS011;4949;48.482;9.206;2022-11-23T00:03:13;4.80;;;3.00;;
9819;SDS011;4949;48.482;9.206;2022-11-23T00:08:15;8.20;;;3.50;;
9819;SDS011;4949;48.482;9.206;2022-11-23T00:13:20;4.80;;;3.37;;
9819;SDS011;4949;48.482;9.206;2022-11-23T00:18:23;4.83;;;2.90;;
9819;SDS011;4949;48.482;9.206;2022-11-23T00:23:24;3.97;;;3.10;;
9819;SDS011;4949;48.482;9.206;2022-11-23T00:28:24;4.00;;;3.60;;
9819;SDS011;4949;48.482;9.206;2022-11-23T00:33:25;5.33;;;3.47;;
9819;SDS011;4949;48.482;9.206;2022-11-23T00:38:26;3.77;;;3.37;;
9819;SDS011;4949;48.482;9.206;2022-11-23T00:43:30;3.73;;;3.40;;
9819;SDS011;4949;48.482;9.206;2022-11-23T00:48:31;4.27;;;3.40;;
9819;SDS011;4949;48.482;9.206;2022-11-23T00:53:35;4.93;;;3.50;;
9819;SDS011;4949;48.482;9.206;2022-11-23T00:58:38;3.80;;;3.47;;
9819;SDS011;4949;48.482;9.206;2022-11-23T01:03:40;6.00;;;3.57;;
9819;SDS011;4949;48.482;9.206;2022-11-23T01:08:48;3.87;;;2.90;;
9819;SDS011;4949;48.482;9.206;2022-11-23T01:14:17;7.17;;;3.03;;
9819;SDS011;4949;48.482;9.206;2022-11-23T01:19:20;3.43;;;2.60;;
9819;SDS011;4949;48.482;9.206;2022-11-23T01:24:21;5.20;;;3.20;;
9819;SDS011;4949;48.482;9.206;2022-11-23T01:29:24;5.83;;;3.00;;
9819;SDS011;4949;48.482;9.206;2022-11-23T01:34:27;6.60;;;3.33;;
9819;SDS011;4949;48.482;9.206;2022-11-23T01:39:30;6.50;;;3.50;;
9819;SDS011;4949;48.482;9.206;2022-11-23T01:44:34;3.50;;;3.00;;
9819;SDS011;4949;48.482;9.206;2022-11-23T01:54:49;6.23;;;3.07;;
9819;SDS011;4949;48.482;9.206;2022-11-23T01:59:56;3.30;;;2.53;;
9819;SDS011;4949;48.482;9.206;2022-11-23T02:04:58;3.37;;;2.80;;
9819;SDS011;4949;48.482;9.206;2022-11-23T02:10:03;3.53;;;2.50;;
9819;SDS011;4949;48.482;9.206;2022-11-23T02:15:04;3.63;;;2.80;;
9819;SDS011;4949;48.482;9.206;2022-11-23T02:20:06;5.20;;;2.67;;
9819;SDS011;4949;48.482;9.206;2022-11-23T02:25:23;5.57;;;2.80;;
9819;SDS011;4949;48.482;9.206;2022-11-23T02:30:40;6.07;;;3.00;;
9819;SDS011;4949;48.482;9.206;2022-11-23T02:35:51;4.83;;;2.60;;
9819;SDS011;4949;48.482;9.206;2022-11-23T02:40:54;3.20;;;2.60;;
9819;SDS011;4949;48.482;9.206;2022-11-23T02:45:55;7.33;;;2.70;;
9819;SDS011;4949;48.482;9.206;2022-11-23T02:50:59;4.17;;;2.43;;
9819;SDS011;4949;48.482;9.206;2022-11-23T02:56:00;3.20;;;2.20;;
9819;SDS011;4949;48.482;9.206;2022-11-23T03:01:05;4.80;;;2.60;;
9819;SDS011;4949;48.482;9.206;2022-11-23T03:06:08;5.07;;;2.57;;
9819;SDS011;4949;48.482;9.206;2022-11-23T03:11:09;2.57;;;1.87;;
9819;SDS011;4949;48.482;9.206;2022-11-23T03:16:10;5.33;;;2.47;;
9819;SDS011;4949;48.482;9.206;2022-11-23T03:21:11;5.00;;;2.20;;
9819;SDS011;4949;48.482;9.206;2022-11-23T03:26:16;2.93;;;2.47;;
9819;SDS011;4949;48.482;9.206;2022-11-23T03:31:17;2.70;;;2.37;;
9819;SDS011;4949;48.482;9.206;2022-11-23T03:36:20;4.03;;;2.63;;
9819;SDS011;4949;48.482;9.206;2022-11-23T03:41:23;3.00;;;2.50;;
9819;SDS011;4949;48.482;9.206;2022-11-23T03:46:24;8.13;;;3.43;;
9819;SDS011;4949;48.482;9.206;2022-11-23T03:51:25;3.20;;;2.80;;
9819;SDS011;4949;48.482;9.206;2022-11-23T03:56:26;6.63;;;3.07;;
9819;SDS011;4949;48.482;9.206;2022-11-23T04:01:26;4.33;;;2.27;;
9819;SDS011;4949;48.482;9.206;2022-11-23T04:06:27;7.90;;;3.93;;
9819;SDS011;4949;48.482;9.206;2022-11-23T04:11:28;3.30;;;2.50;;
9819;SDS011;4949;48.482;9.206;2022-11-23T04:16:29;2.70;;;2.50;;
9819;SDS011;4949;48.482;9.206;2022-11-23T04:21:32;3.60;;;2.70;;
9819;SDS011;4949;48.482;9.206;2022-11-23T04:26:35;6.33;;;2.70;;
9819;SDS011;4949;48.482;9.206;2022-11-23T04:31:36;3.47;;;2.37;;
9819;SDS011;4949;48.482;9.206;2022-11-23T04:36:36;4.10;;;2.37;;
9819;SDS011;4949;48.482;9.206;2022-11-23T04:41:38;5.10;;;3.30;;
9819;SDS011;4949;48.482;9.206;2022-11-23T04:46:42;7.40;;;3.20;;
9819;SDS011;4949;48.482;9.206;2022-11-23T04:51:42;5.17;;;2.70;;
9819;SDS011;4949;48.482;9.206;2022-11-23T04:56:43;5.70;;;3.10;;
9819;SDS011;4949;48.482;9.206;2022-11-23T05:01:46;3.67;;;2.53;;
9819;SDS011;4949;48.482;9.206;2022-11-23T05:06:48;2.87;;;2.27;;
9819;SDS011;4949;48.482;9.206;2022-11-23T05:11:49;3.23;;;2.83;;
9819;SDS011;4949;48.482;9.206;2022-11-23T05:16:52;3.97;;;2.50;;
9819;SDS011;4949;48.482;9.206;2022-11-23T05:21:53;5.07;;;2.20;;
9819;SDS011;4949;48.482;9.206;2022-11-23T05:26:54;5.50;;;3.40;;
9819;SDS011;4949;48.482;9.206;2022-11-23T05:31:54;4.73;;;2.53;;
9819;SDS011;4949;48.482;9.206;2022-11-23T05:36:55;4.30;;;3.07;;
9819;SDS011;4949;48.482;9.206;2022-11-23T05:41:56;3.00;;;2.80;;
9819;SDS011;4949;48.482;9.206;2022-11-23T05:46:59;2.50;;;2.30;;
9819;SDS011;4949;48.482;9.206;2022-11-23T05:52:00;4.07;;;2.80;;
9819;SDS011;4949;48.482;9.206;2022-11-23T05:57:00;6.30;;;3.93;;
9819;SDS011;4949;48.482;9.206;2022-11-23T06:02:01;3.73;;;2.80;;
9819;SDS011;4949;48.482;9.206;2022-11-23T06:07:02;6.00;;;2.73;;
9819;SDS011;4949;48.482;9.206;2022-11-23T06:12:04;3.00;;;2.70;;
9819;SDS011;4949;48.482;9.206;2022-11-23T06:17:05;3.60;;;3.30;;
9819;SDS011;4949;48.482;9.206;2022-11-23T06:22:06;4.90;;;2.87;;
9819;SDS011;4949;48.482;9.206;2022-11-23T06:27:09;3.20;;;2.80;;
9819;SDS011;4949;48.482;9.206;2022-11-23T06:32:10;3.20;;;2.77;;
9819;SDS011;4949;48.482;9.206;2022-11-23T06:37:12;6.53;;;3.03;;
9819;SDS011;4949;48.482;9.206;2022-11-23T06:42:15;6.40;;;3.43;;
9819;SDS011;4949;48.482;9.206;2022-11-23T06:47:18;6.90;;;3.00;;
9819;SDS011;4949;48.482;9.206;2022-11-23T06:52:19;4.77;;;3.10;;
9819;SDS011;4949;48.482;9.206;2022-11-23T06:57:20;6.33;;;3.27;;
9819;SDS011;4949;48.482;9.206;2022-11-23T07:02:21;3.57;;;2.87;;
9819;SDS011;4949;48.482;9.206;2022-11-23T07:07:24;4.40;;;3.20;;
9819;SDS011;4949;48.482;9.206;2022-11-23T07:12:25;5.83;;;3.70;;
9819;SDS011;4949;48.482;9.206;2022-11-23T07:17:28;4.63;;;3.33;;
9819;SDS011;4949;48.482;9.206;2022-11-23T07:22:29;10.10;;;3.90;;
9819;SDS011;4949;48.482;9.206;2022-11-23T07:27:29;5.90;;;3.50;;
9819;SDS011;4949;48.482;9.206;2022-11-23T07:32:30;6.50;;;3.63;;
9819;SDS011;4949;48.482;9.206;2022-11-23T07:37:31;3.90;;;3.50;;
9819;SDS011;4949;48.482;9.206;2022-11-23T07:42:34;4.43;;;2.90;;
9819;SDS011;4949;48.482;9.206;2022-11-23T07:47:37;4.33;;;3.93;;
9819;SDS011;4949;48.482;9.206;2022-11-23T07:52:38;7.90;;;4.47;;
9819;SDS011;4949;48.482;9.206;2022-11-23T07:57:40;7.57;;;5.07;;
9819;SDS011;4949;48.482;9.206;2022-11-23T08:02:43;4.73;;;4.20;;
9819;SDS011;4949;48.482;9.206;2022-11-23T08:07:44;7.53;;;4.20;;
9819;SDS011;4949;48.482;9.206;2022-11-23T08:12:45;5.70;;;3.77;;
9819;SDS011;4949;48.482;9.206;2022-11-23T08:17:45;3.70;;;3.07;;
9819;SDS011;4949;48.482;9.206;2022-11-23T08:22:46;3.80;;;3.10;;
9819;SDS011;4949;48.482;9.206;2022-11-23T08:27:53;3.83;;;3.30;;
9819;SDS011;4949;48.482;9.206;2022-11-23T08:33:01;5.50;;;3.47;;
9819;SDS011;4949;48.482;9.206;2022-11-23T08:38:09;3.37;;;3.07;;
9819;SDS011;4949;48.482;9.206;2022-11-23T08:43:10;3.97;;;3.57;;
9819;SDS011;4949;48.482;9.206;2022-11-23T08:48:11;3.60;;;3.00;;
9819;SDS011;4949;48.482;9.206;2022-11-23T08:53:12;4.50;;;3.50;;
9819;SDS011;4949;48.482;9.206;2022-11-23T08:58:18;4.03;;;3.67;;
9819;SDS011;4949;48.482;9.206;2022-11-23T09:03:18;4.87;;;3.37;;
9819;SDS011;4949;48.482;9.206;2022-11-23T09:08:21;4.60;;;3.87;;
9819;SDS011;4949;48.482;9.206;2022-11-23T09:13:24;4.07;;;3.67;;
9819;SDS011;4949;48.482;9.206;2022-11-23T09:18:27;4.07;;;3.67;;
9819;SDS011;4949;48.482;9.206;2022-11-23T09:23:35;4.03;;;3.60;;
9819;SDS011;4949;48.482;9.206;2022-11-23T09:28:36;4.13;;;3.77;;
9819;SDS011;4949;48.482;9.206;2022-11-23T09:33:37;3.97;;;3.57;;
9819;SDS011;4949;48.482;9.206;2022-11-23T09:38:38;4.20;;;3.70;;
9819;SDS011;4949;48.482;9.206;2022-11-23T09:43:40;4.50;;;3.97;;
9819;SDS011;4949;48.482;9.206;2022-11-23T09:49:20;3.70;;;3.20;;
9819;SDS011;4949;48.482;9.206;2022-11-23T09:59:43;4.13;;;3.73;;
9819;SDS011;4949;48.482;9.206;2022-11-23T10:05:28;7.83;;;3.90;;
9819;SDS011;4949;48.482;9.206;2022-11-23T10:10:40;4.00;;;3.60;;
9819;SDS011;4949;48.482;9.206;2022-11-23T10:16:02;5.13;;;3.80;;
9819;SDS011;4949;48.482;9.206;2022-11-23T10:21:31;4.23;;;3.80;;
9819;SDS011;4949;48.482;9.206;2022-11-23T10:26:49;3.93;;;2.70;;
9819;SDS011;4949;48.482;9.206;2022-11-23T10:31:50;3.03;;;2.73;;
9819;SDS011;4949;48.482;9.206;2022-11-23T10:36:54;4.73;;;3.27;;
9819;SDS011;4949;48.482;9.206;2022-11-23T10:41:57;3.30;;;3.00;;
9819;SDS011;4949;48.482;9.206;2022-11-23T10:47:04;3.50;;;2.97;;
9819;SDS011;4949;48.482;9.206;2022-11-23T10:52:08;2.70;;;2.50;;
9819;SDS011;4949;48.482;9.206;2022-11-23T10:57:33;3.60;;;3.20;;
9819;SDS011;4949;48.482;9.206;2022-11-23T11:07:49;2.60;;;2.40;;
9819;SDS011;4949;48.482;9.206;2022-11-23T11:12:51;4.00;;;2.77;;
9819;SDS011;4949;48.482;9.206;2022-11-23T11:17:55;3.47;;;2.40;;
9819;SDS011;4949;48.482;9.206;2022-11-23T11:23:03;2.40;;;2.20;;
9819;SDS011;4949;48.482;9.206;2022-11-23T11:28:38;2.30;;;2.10;;
9819;SDS011;4949;48.482;9.206;2022-11-23T11:33:45;3.80;;;2.40;;
9819;SDS011;4949;48.482;9.206;2022-11-23T11:39:07;2.40;;;2.20;;
9819;SDS011;4949;48.482;9.206;2022-11-23T11:44:19;2.60;;;2.40;;
9819;SDS011;4949;48.482;9.206;2022-11-23T11:54:40;3.20;;;2.17;;
9819;SDS011;4949;48.482;9.206;2022-11-23T11:59:49;3.03;;;2.20;;
9819;SDS011;4949;48.482;9.206;2022-11-23T12:10:27;3.70;;;3.17;;
9819;SDS011;4949;48.482;9.206;2022-11-23T12:15:41;2.27;;;2.07;;
9819;SDS011;4949;48.482;9.206;2022-11-23T12:21:10;2.53;;;2.10;;
9819;SDS011;4949;48.482;9.206;2022-11-23T12:59:57;2.80;;;1.80;;
9819;SDS011;4949;48.482;9.206;2022-11-23T13:10:35;1.90;;;1.77;;
9819;SDS011;4949;48.482;9.206;2022-11-23T13:21:41;2.43;;;1.80;;
9819;SDS011;4949;48.482;9.206;2022-11-23T13:26:47;2.23;;;1.87;;
9819;SDS011;4949;48.482;9.206;2022-11-23T13:43:19;3.40;;;2.17;;
9819;SDS011;4949;48.482;9.206;2022-11-23T13:48:37;3.00;;;2.37;;
9819;SDS011;4949;48.482;9.206;2022-11-23T13:53:49;2.13;;;1.60;;
9819;SDS011;4949;48.482;9.206;2022-11-23T14:04:25;2.27;;;1.90;;
9819;SDS011;4949;48.482;9.206;2022-11-23T14:09:44;2.10;;;1.80;;
9819;SDS011;4949;48.482;9.206;2022-11-23T14:31:48;2.10;;;1.90;;
9819;SDS011;4949;48.482;9.206;2022-11-23T14:42:42;2.03;;;1.80;;
9819;SDS011;4949;48.482;9.206;2022-11-23T14:47:45;3.00;;;2.33;;
9819;SDS011;4949;48.482;9.206;2022-11-23T14:52:50;3.07;;;2.07;;
9819;SDS011;4949;48.482;9.206;2022-11-23T14:57:55;3.83;;;1.83;;
9819;SDS011;4949;48.482;9.206;2022-11-23T15:03:06;2.10;;;1.90;;
9819;SDS011;4949;48.482;9.206;2022-11-23T15:13:26;2.53;;;2.13;;
9819;SDS011;4949;48.482;9.206;2022-11-23T15:23:38;2.17;;;1.80;;
9819;SDS011;4949;48.482;9.206;2022-11-23T15:28:43;2.13;;;1.97;;
9819;SDS011;4949;48.482;9.206;2022-11-23T15:33:45;2.17;;;1.97;;
9819;SDS011;4949;48.482;9.206;2022-11-23T15:38:51;3.57;;;1.70;;
9819;SDS011;4949;48.482;9.206;2022-11-23T15:43:56;2.30;;;1.97;;
9819;SDS011;4949;48.482;9.206;2022-11-23T15:48:59;2.80;;;2.10;;
9819;SDS011;4949;48.482;9.206;2022-11-23T15:54:12;2.20;;;1.80;;
9819;SDS011;4949;48.482;9.206;2022-11-23T16:04:47;3.97;;;2.30;;
9819;SDS011;4949;48.482;9.206;2022-11-23T16:10:25;2.07;;;1.93;;
9819;SDS011;4949;48.482;9.206;2022-11-23T16:20:43;2.00;;;1.73;;
9819;SDS011;4949;48.482;9.206;2022-11-23T16:25:55;1.70;;;1.60;;
9819;SDS011;4949;48.482;9.206;2022-11-23T16:31:04;2.10;;;1.90;;
9819;SDS011;4949;48.482;9.206;2022-11-23T16:36:05;2.47;;;2.00;;
9819;SDS011;4949;48.482;9.206;2022-11-23T16:41:06;2.00;;;1.90;;
9819;SDS011;4949;48.482;9.206;2022-11-23T16:46:08;1.50;;;1.40;;
9819;SDS011;4949;48.482;9.206;2022-11-23T16:51:12;1.97;;;1.77;;
9819;SDS011;4949;48.482;9.206;2022-11-23T16:56:17;3.03;;;1.80;;
9819;SDS011;4949;48.482;9.206;2022-11-23T17:01:24;1.73;;;1.63;;
9819;SDS011;4949;48.482;9.206;2022-11-23T17:06:27;2.50;;;2.10;;
9819;SDS011;4949;48.482;9.206;2022-11-23T17:11:30;2.43;;;2.27;;
9819;SDS011;4949;48.482;9.206;2022-11-23T17:16:33;2.60;;;2.40;;
9819;SDS011;4949;48.482;9.206;2022-11-23T17:21:35;3.07;;;2.40;;
9819;SDS011;4949;48.482;9.206;2022-11-23T17:26:36;4.40;;;3.57;;
9819;SDS011;4949;48.482;9.206;2022-11-23T17:31:41;3.13;;;2.90;;
9819;SDS011;4949;48.482;9.206;2022-11-23T17:36:48;4.00;;;2.43;;
9819;SDS011;4949;48.482;9.206;2022-11-23T17:41:50;7.37;;;2.97;;
9819;SDS011;4949;48.482;9.206;2022-11-23T17:46:53;2.60;;;2.40;;
9819;SDS011;4949;48.482;9.206;2022-11-23T17:52:01;5.13;;;2.77;;
9819;SDS011;4949;48.482;9.206;2022-11-23T17:57:02;4.27;;;3.00;;
9819;SDS011;4949;48.482;9.206;2022-11-23T18:02:03;3.70;;;3.30;;
9819;SDS011;4949;48.482;9.206;2022-11-23T18:07:13;4.00;;;3.10;;
9819;SDS011;4949;48.482;9.206;2022-11-23T18:12:17;3.30;;;3.00;;
9819;SDS011;4949;48.482;9.206;2022-11-23T18:17:18;5.13;;;3.47;;
9819;SDS011;4949;48.482;9.206;2022-11-23T18:22:21;4.67;;;3.30;;
9819;SDS011;4949;48.482;9.206;2022-11-23T18:27:27;4.30;;;3.30;;
9819;SDS011;4949;48.482;9.206;2022-11-23T18:32:28;4.23;;;3.77;;
9819;SDS011;4949;48.482;9.206;2022-11-23T18:37:31;5.00;;;4.37;;
9819;SDS011;4949;48.482;9.206;2022-11-23T18:42:32;4.50;;;3.57;;
9819;SDS011;4949;48.482;9.206;2022-11-23T18:47:36;9.23;;;5.63;;
9819;SDS011;4949;48.482;9.206;2022-11-23T18:52:37;5.73;;;4.70;;
9819;SDS011;4949;48.482;9.206;2022-11-23T18:57:40;4.47;;;4.10;;
9819;SDS011;4949;48.482;9.206;2022-11-23T19:02:41;4.50;;;3.80;;
9819;SDS011;4949;48.482;9.206;2022-11-23T19:07:41;3.87;;;3.47;;
9819;SDS011;4949;48.482;9.206;2022-11-23T19:12:45;4.77;;;4.00;;
9819;SDS011;4949;48.482;9.206;2022-11-23T19:17:45;3.00;;;2.80;;
9819;SDS011;4949;48.482;9.206;2022-11-23T19:22:51;2.80;;;2.40;;
9819;SDS011;4949;48.482;9.206;2022-11-23T19:27:54;1.97;;;1.87;;
9819;SDS011;4949;48.482;9.206;2022-11-23T19:32:54;2.40;;;2.20;;
9819;SDS011;4949;48.482;9.206;2022-11-23T19:37:57;2.80;;;2.57;;
9819;SDS011;4949;48.482;9.206;2022-11-23T19:42:58;2.43;;;2.23;;
9819;SDS011;4949;48.482;9.206;2022-11-23T19:47:59;2.93;;;2.63;;
9819;SDS011;4949;48.482;9.206;2022-11-23T19:53:02;2.73;;;2.50;;
9819;SDS011;4949;48.482;9.206;2022-11-23T19:58:04;2.63;;;2.40;;
9819;SDS011;4949;48.482;9.206;2022-11-23T20:03:05;2.87;;;2.63;;
9819;SDS011;4949;48.482;9.206;2022-11-23T20:08:06;2.23;;;1.93;;
9819;SDS011;4949;48.482;9.206;2022-11-23T20:13:09;2.40;;;2.20;;
9819;SDS011;4949;48.482;9.206;2022-11-23T20:18:12;3.60;;;2.63;;
9819;SDS011;4949;48.482;9.206;2022-11-23T20:23:17;4.50;;;2.50;;
9819;SDS011;4949;48.482;9.206;2022-11-23T20:28:26;3.50;;;2.70;;
9819;SDS011;4949;48.482;9.206;2022-11-23T20:33:29;4.80;;;2.47;;
9819;SDS011;4949;48.482;9.206;2022-11-23T20:38:34;3.73;;;2.70;;
9819;SDS011;4949;48.482;9.206;2022-11-23T20:43:38;4.30;;;2.43;;
9819;SDS011;4949;48.482;9.206;2022-11-23T20:48:42;2.60;;;2.40;;
9819;SDS011;4949;48.482;9.206;2022-11-23T20:53:46;11.13;;;2.60;;
9819;SDS011;4949;48.482;9.206;2022-11-23T20:58:49;4.80;;;2.70;;
9819;SDS011;4949;48.482;9.206;2022-11-23T21:03:58;2.50;;;2.30;;
9819;SDS011;4949;48.482;9.206;2022-11-23T21:09:01;4.03;;;2.20;;
9819;SDS011;4949;48.482;9.206;2022-11-23T21:14:03;4.30;;;2.40;;
9819;SDS011;4949;48.482;9.206;2022-11-23T21:19:10;5.63;;;2.30;;
9819;SDS011;4949;48.482;9.206;2022-11-23T21:24:15;4.93;;;2.87;;
9819;SDS011;4949;48.482;9.206;2022-11-23T21:29:16;3.93;;;3.50;;
9819;SDS011;4949;48.482;9.206;2022-11-23T21:34:20;3.57;;;2.13;;
9819;SDS011;4949;48.482;9.206;2022-11-23T21:39:26;5.27;;;2.40;;
9819;SDS011;4949;48.482;9.206;2022-11-23T21:44:30;2.87;;;2.20;;
9819;SDS011;4949;48.482;9.206;2022-11-23T21:49:31;3.30;;;2.50;;
9819;SDS011;4949;48.482;9.206;2022-11-23T21:54:31;3.23;;;2.37;;
9819;SDS011;4949;48.482;9.206;2022-11-23T21:59:35;4.80;;;2.53;;
9819;SDS011;4949;48.482;9.206;2022-11-23T22:04:35;4.47;;;2.80;;
9819;SDS011;4949;48.482;9.206;2022-11-23T22:09:38;3.10;;;2.33;;
9819;SDS011;4949;48.482;9.206;2022-11-23T22:14:44;3.50;;;2.10;;
9819;SDS011;4949;48.482;9.206;2022-11-23T22:19:47;7.43;;;2.53;;
9819;SDS011;4949;48.482;9.206;2022-11-23T22:24:50;5.00;;;3.20;;
9819;SDS011;4949;48.482;9.206;2022-11-23T22:29:51;19.87;;;3.63;;
9819;SDS011;4949;48.482;9.206;2022-11-23T22:34:51;4.80;;;2.83;;
9819;SDS011;4949;48.482;9.206;2022-11-23T22:39:52;5.63;;;2.93;;
9819;SDS011;4949;48.482;9.206;2022-11-23T22:44:53;5.93;;;3.17;;
9819;SDS011;4949;48.482;9.206;2022-11-23T22:49:54;8.03;;;3.13;;
9819;SDS011;4949;48.482;9.206;2022-11-23T22:54:57;5.63;;;2.67;;
9819;SDS011;4949;48.482;9.206;2022-11-23T23:00:00;5.77;;;3.10;;
9819;SDS011;4949;48.482;9.206;2022-11-23T23:05:01;6.83;;;3.00;;
9819;SDS011;4949;48.482;9.206;2022-11-23T23:10:04;12.23;;;3.33;;
9819;SDS011;4949;48.482;9.206;2022-11-23T23:15:08;4.57;;;2.67;;
9819;SDS011;4949;48.482;9.206;2022-11-23T23:20:12;5.90;;;2.50;;
9819;SDS011;4949;48.482;9.206;2022-11-23T23:25:13;7.00;;;3.00;;
9819;SDS011;4949;48.482;9.206;2022-11-23T23:30:19;6.07;;;3.50;;
9819;SDS011;4949;48.482;9.206;2022-11-23T23:35:22;4.80;;;2.90;;
9819;SDS011;4949;48.482;9.206;2022-11-23T23:40:26;9.23;;;3.90;;
9819;SDS011;4949;48.482;9.206;2022-11-23T23:45:26;3.73;;;3.07;;
9819;SDS011;4949;48.482;9.206;2022-11-23T23:50:27;7.07;;;2.90;;
9819;SDS011;4949;48.482;9.206;2022-11-23T23:55:30;5.17;;;2.53;;
